sensor_id;sensor_type;location;lat;lon;timestamp;pressure;altitude;pressure_sealevel;temperature;humidity
71299;BME280;59083;47.974;21.722;2022-10-14T00:02:46;100949.16;;;8.92;99.49
71299;BME280;59083;47.974;21.722;2022-10-14T00:05:47;100953.31;;;8.94;99.68
71299;BME280;59083;47.974;21.722;2022-10-14T00:08:49;100943.50;;;8.95;99.56
71299;BME280;59083;47.974;21.722;2022-10-14T00:11:50;100944.34;;;8.95;99.66
71299;BME280;59083;47.974;21.722;2022-10-14T00:14:51;100939.03;;;8.95;99.66
71299;BME280;59083;47.974;21.722;2022-10-14T00:17:53;100935.19;;;8.90;99.87
71299;BME280;59083;47.974;21.722;2022-10-14T00:20:56;100934.22;;;8.91;99.66
71299;BME280;59083;47.974;21.722;2022-10-14T00:23:58;100937.69;;;8.91;99.69
71299;BME280;59083;47.974;21.722;2022-10-14T00:26:59;100933.91;;;8.94;99.76
71299;BME280;59083;47.974;21.722;2022-10-14T00:30:01;100944.69;;;8.92;99.52
71299;BME280;59083;47.974;21.722;2022-10-14T00:33:02;100933.22;;;8.92;99.48
71299;BME280;59083;47.974;21.722;2022-10-14T00:36:04;100942.19;;;8.91;99.51
71299;BME280;59083;47.974;21.722;2022-10-14T00:39:07;100936.56;;;8.94;99.13
71299;BME280;59083;47.974;21.722;2022-10-14T00:42:13;100939.69;;;8.89;98.28
71299;BME280;59083;47.974;21.722;2022-10-14T00:45:19;100939.69;;;8.89;98.07
71299;BME280;59083;47.974;21.722;2022-10-14T00:48:23;100943.84;;;8.92;99.09
71299;BME280;59083;47.974;21.722;2022-10-14T00:51:25;100939.72;;;8.97;99.11
71299;BME280;59083;47.974;21.722;2022-10-14T00:54:50;100935.72;;;8.93;99.60
71299;BME280;59083;47.974;21.722;2022-10-14T00:57:52;100934.22;;;8.83;100.00
71299;BME280;59083;47.974;21.722;2022-10-14T01:00:54;100937.03;;;8.81;99.97
71299;BME280;59083;47.974;21.722;2022-10-14T01:03:56;100937.84;;;8.82;100.00
71299;BME280;59083;47.974;21.722;2022-10-14T01:07:10;100925.56;;;8.81;100.00
71299;BME280;59083;47.974;21.722;2022-10-14T01:13:24;100925.19;;;8.67;100.00
71299;BME280;59083;47.974;21.722;2022-10-14T01:29:58;100925.97;;;8.52;100.00
71299;BME280;59083;47.974;21.722;2022-10-14T01:33:14;100919.13;;;8.41;100.00
71299;BME280;59083;47.974;21.722;2022-10-14T01:36:20;100917.47;;;8.40;100.00
71299;BME280;59083;47.974;21.722;2022-10-14T01:39:25;100907.09;;;8.29;100.00
71299;BME280;59083;47.974;21.722;2022-10-14T01:42:32;100909.06;;;8.27;100.00
71299;BME280;59083;47.974;21.722;2022-10-14T01:45:35;100910.88;;;8.26;100.00
71299;BME280;59083;47.974;21.722;2022-10-14T01:48:44;100904.22;;;8.14;100.00
71299;BME280;59083;47.974;21.722;2022-10-14T01:51:51;100894.06;;;8.10;100.00
71299;BME280;59083;47.974;21.722;2022-10-14T01:54:56;100902.84;;;8.10;100.00
71299;BME280;59083;47.974;21.722;2022-10-14T01:58:00;100897.38;;;8.12;100.00
71299;BME280;59083;47.974;21.722;2022-10-14T02:01:04;100900.72;;;8.14;100.00
71299;BME280;59083;47.974;21.722;2022-10-14T02:04:17;100893.41;;;8.08;100.00
71299;BME280;59083;47.974;21.722;2022-10-14T02:07:29;100896.41;;;8.13;100.00
71299;BME280;59083;47.974;21.722;2022-10-14T02:10:54;100898.16;;;8.04;100.00
71299;BME280;59083;47.974;21.722;2022-10-14T02:17:31;100903.25;;;7.89;100.00
71299;BME280;59083;47.974;21.722;2022-10-14T02:20:51;100899.41;;;7.84;100.00
71299;BME280;59083;47.974;21.722;2022-10-14T02:24:01;100894.56;;;7.79;100.00
71299;BME280;59083;47.974;21.722;2022-10-14T02:27:08;100890.25;;;7.78;100.00
71299;BME280;59083;47.974;21.722;2022-10-14T02:30:12;100897.84;;;7.73;100.00
71299;BME280;59083;47.974;21.722;2022-10-14T02:33:14;100885.88;;;7.69;100.00
71299;BME280;59083;47.974;21.722;2022-10-14T02:36:19;100886.50;;;7.63;100.00
71299;BME280;59083;47.974;21.722;2022-10-14T02:39:29;100883.31;;;7.60;100.00
71299;BME280;59083;47.974;21.722;2022-10-14T02:42:31;100880.06;;;7.66;100.00
71299;BME280;59083;47.974;21.722;2022-10-14T02:45:33;100883.19;;;7.61;100.00
71299;BME280;59083;47.974;21.722;2022-10-14T02:48:35;100872.88;;;7.58;100.00
71299;BME280;59083;47.974;21.722;2022-10-14T02:51:36;100878.50;;;7.55;100.00
71299;BME280;59083;47.974;21.722;2022-10-14T02:54:38;100874.31;;;7.53;100.00
71299;BME280;59083;47.974;21.722;2022-10-14T02:57:39;100872.22;;;7.56;100.00
71299;BME280;59083;47.974;21.722;2022-10-14T03:00:41;100874.94;;;7.46;100.00
71299;BME280;59083;47.974;21.722;2022-10-14T03:03:43;100881.75;;;7.49;100.00
71299;BME280;59083;47.974;21.722;2022-10-14T03:06:44;100887.41;;;7.46;100.00
71299;BME280;59083;47.974;21.722;2022-10-14T03:09:47;100886.34;;;7.39;100.00
71299;BME280;59083;47.974;21.722;2022-10-14T03:12:48;100894.75;;;7.34;100.00
71299;BME280;59083;47.974;21.722;2022-10-14T03:15:51;100883.25;;;7.26;100.00
71299;BME280;59083;47.974;21.722;2022-10-14T03:18:53;100885.59;;;7.29;100.00
71299;BME280;59083;47.974;21.722;2022-10-14T03:21:54;100895.88;;;7.32;100.00
71299;BME280;59083;47.974;21.722;2022-10-14T03:24:56;100891.06;;;7.27;100.00
71299;BME280;59083;47.974;21.722;2022-10-14T03:27:57;100891.91;;;7.10;100.00
71299;BME280;59083;47.974;21.722;2022-10-14T03:31:04;100891.13;;;7.18;100.00
71299;BME280;59083;47.974;21.722;2022-10-14T03:34:05;100890.91;;;7.11;100.00
71299;BME280;59083;47.974;21.722;2022-10-14T03:37:08;100892.66;;;7.02;100.00
71299;BME280;59083;47.974;21.722;2022-10-14T03:40:11;100887.13;;;7.14;100.00
71299;BME280;59083;47.974;21.722;2022-10-14T03:43:13;100890.38;;;7.07;100.00
71299;BME280;59083;47.974;21.722;2022-10-14T03:46:15;100886.75;;;7.09;100.00
71299;BME280;59083;47.974;21.722;2022-10-14T03:49:17;100886.22;;;7.05;100.00
71299;BME280;59083;47.974;21.722;2022-10-14T03:52:18;100889.84;;;7.04;100.00
71299;BME280;59083;47.974;21.722;2022-10-14T03:55:23;100891.53;;;7.05;100.00
71299;BME280;59083;47.974;21.722;2022-10-14T03:58:25;100886.00;;;6.98;100.00
71299;BME280;59083;47.974;21.722;2022-10-14T04:01:28;100887.59;;;6.91;100.00
71299;BME280;59083;47.974;21.722;2022-10-14T04:04:30;100890.09;;;6.93;100.00
71299;BME280;59083;47.974;21.722;2022-10-14T04:07:32;100884.09;;;6.91;100.00
71299;BME280;59083;47.974;21.722;2022-10-14T04:10:34;100878.28;;;6.87;100.00
71299;BME280;59083;47.974;21.722;2022-10-14T04:13:35;100879.94;;;6.88;100.00
71299;BME280;59083;47.974;21.722;2022-10-14T04:16:37;100876.59;;;6.86;100.00
71299;BME280;59083;47.974;21.722;2022-10-14T04:19:40;100872.97;;;6.87;100.00
71299;BME280;59083;47.974;21.722;2022-10-14T04:22:42;100885.53;;;6.85;100.00
71299;BME280;59083;47.974;21.722;2022-10-14T04:25:43;100884.87;;;6.83;100.00
71299;BME280;59083;47.974;21.722;2022-10-14T04:28:45;100880.09;;;6.87;100.00
71299;BME280;59083;47.974;21.722;2022-10-14T04:31:46;100879.34;;;6.77;100.00
71299;BME280;59083;47.974;21.722;2022-10-14T04:34:48;100885.06;;;6.72;100.00
71299;BME280;59083;47.974;21.722;2022-10-14T04:37:50;100878.41;;;6.68;100.00
71299;BME280;59083;47.974;21.722;2022-10-14T04:40:52;100884.69;;;6.67;100.00
71299;BME280;59083;47.974;21.722;2022-10-14T04:43:54;100883.41;;;6.71;100.00
71299;BME280;59083;47.974;21.722;2022-10-14T04:46:56;100886.91;;;6.72;100.00
71299;BME280;59083;47.974;21.722;2022-10-14T04:49:57;100886.06;;;6.71;100.00
71299;BME280;59083;47.974;21.722;2022-10-14T04:52:58;100879.38;;;6.67;100.00
71299;BME280;59083;47.974;21.722;2022-10-14T04:55:59;100883.41;;;6.71;100.00
71299;BME280;59083;47.974;21.722;2022-10-14T04:59:01;100887.06;;;6.70;100.00
71299;BME280;59083;47.974;21.722;2022-10-14T05:02:04;100874.47;;;6.72;100.00
71299;BME280;59083;47.974;21.722;2022-10-14T05:05:07;100873.06;;;6.78;100.00
71299;BME280;59083;47.974;21.722;2022-10-14T05:08:09;100881.16;;;6.76;100.00
71299;BME280;59083;47.974;21.722;2022-10-14T05:11:11;100880.59;;;6.73;100.00
71299;BME280;59083;47.974;21.722;2022-10-14T05:14:13;100876.97;;;6.74;100.00
71299;BME280;59083;47.974;21.722;2022-10-14T05:17:15;100875.25;;;6.82;100.00
71299;BME280;59083;47.974;21.722;2022-10-14T05:20:17;100889.72;;;6.88;100.00
71299;BME280;59083;47.974;21.722;2022-10-14T05:23:18;100878.06;;;6.98;100.00
71299;BME280;59083;47.974;21.722;2022-10-14T05:26:20;100881.59;;;6.89;100.00
71299;BME280;59083;47.974;21.722;2022-10-14T05:29:22;100874.06;;;6.94;100.00
71299;BME280;59083;47.974;21.722;2022-10-14T05:32:24;100876.16;;;7.09;100.00
71299;BME280;59083;47.974;21.722;2022-10-14T05:35:25;100880.09;;;7.04;100.00
71299;BME280;59083;47.974;21.722;2022-10-14T05:38:30;100883.41;;;7.06;100.00
71299;BME280;59083;47.974;21.722;2022-10-14T05:41:31;100891.28;;;7.16;100.00
71299;BME280;59083;47.974;21.722;2022-10-14T05:44:33;100886.59;;;7.28;100.00
71299;BME280;59083;47.974;21.722;2022-10-14T05:47:34;100894.28;;;7.39;100.00
71299;BME280;59083;47.974;21.722;2022-10-14T05:50:36;100871.94;;;7.41;100.00
71299;BME280;59083;47.974;21.722;2022-10-14T05:53:38;100888.06;;;7.48;100.00
71299;BME280;59083;47.974;21.722;2022-10-14T05:56:40;100892.62;;;7.38;100.00
71299;BME280;59083;47.974;21.722;2022-10-14T05:59:42;100889.00;;;7.39;100.00
71299;BME280;59083;47.974;21.722;2022-10-14T06:02:43;100886.62;;;7.36;100.00
71299;BME280;59083;47.974;21.722;2022-10-14T06:05:45;100879.03;;;7.41;100.00
71299;BME280;59083;47.974;21.722;2022-10-14T06:08:47;100877.16;;;7.51;100.00
71299;BME280;59083;47.974;21.722;2022-10-14T06:11:48;100887.75;;;7.51;100.00
71299;BME280;59083;47.974;21.722;2022-10-14T06:14:49;100889.47;;;7.60;100.00
71299;BME280;59083;47.974;21.722;2022-10-14T06:17:50;100891.78;;;7.63;100.00
71299;BME280;59083;47.974;21.722;2022-10-14T06:20:52;100896.19;;;7.72;100.00
71299;BME280;59083;47.974;21.722;2022-10-14T06:23:54;100895.69;;;7.77;100.00
71299;BME280;59083;47.974;21.722;2022-10-14T06:26:56;100893.25;;;7.83;100.00
71299;BME280;59083;47.974;21.722;2022-10-14T06:29:57;100899.59;;;7.91;100.00
71299;BME280;59083;47.974;21.722;2022-10-14T06:32:58;100899.16;;;8.03;100.00
71299;BME280;59083;47.974;21.722;2022-10-14T06:36:04;100907.31;;;8.02;100.00
71299;BME280;59083;47.974;21.722;2022-10-14T06:39:05;100903.72;;;8.19;100.00
71299;BME280;59083;47.974;21.722;2022-10-14T06:42:06;100906.12;;;8.04;100.00
71299;BME280;59083;47.974;21.722;2022-10-14T06:45:08;100916.19;;;8.18;100.00
71299;BME280;59083;47.974;21.722;2022-10-14T06:48:09;100925.69;;;8.29;100.00
71299;BME280;59083;47.974;21.722;2022-10-14T06:51:10;100906.62;;;8.34;100.00
71299;BME280;59083;47.974;21.722;2022-10-14T06:54:13;100923.25;;;8.44;100.00
71299;BME280;59083;47.974;21.722;2022-10-14T06:57:14;100924.78;;;8.54;100.00
71299;BME280;59083;47.974;21.722;2022-10-14T07:00:16;100921.87;;;8.74;99.63
71299;BME280;59083;47.974;21.722;2022-10-14T07:03:18;100918.56;;;8.80;98.99
71299;BME280;59083;47.974;21.722;2022-10-14T07:06:19;100906.81;;;8.82;98.94
71299;BME280;59083;47.974;21.722;2022-10-14T07:09:20;100913.25;;;8.80;99.12
71299;BME280;59083;47.974;21.722;2022-10-14T07:12:21;100916.94;;;8.95;98.71
71299;BME280;59083;47.974;21.722;2022-10-14T07:15:22;100925.25;;;9.00;98.82
71299;BME280;59083;47.974;21.722;2022-10-14T07:18:24;100924.13;;;9.19;98.35
71299;BME280;59083;47.974;21.722;2022-10-14T07:21:25;100928.78;;;9.41;97.60
71299;BME280;59083;47.974;21.722;2022-10-14T07:24:26;100923.97;;;9.44;97.64
71299;BME280;59083;47.974;21.722;2022-10-14T07:27:27;100919.63;;;9.60;97.21
71299;BME280;59083;47.974;21.722;2022-10-14T07:30:29;100916.62;;;9.54;97.35
71299;BME280;59083;47.974;21.722;2022-10-14T07:33:30;100926.25;;;9.80;96.51
71299;BME280;59083;47.974;21.722;2022-10-14T07:36:32;100927.59;;;9.84;96.90
71299;BME280;59083;47.974;21.722;2022-10-14T07:39:33;100926.88;;;9.98;96.65
71299;BME280;59083;47.974;21.722;2022-10-14T07:42:34;100925.19;;;10.13;96.42
71299;BME280;59083;47.974;21.722;2022-10-14T07:45:39;100921.16;;;10.25;95.86
71299;BME280;59083;47.974;21.722;2022-10-14T07:48:41;100931.13;;;10.40;95.40
71299;BME280;59083;47.974;21.722;2022-10-14T07:51:42;100925.41;;;10.51;94.93
71299;BME280;59083;47.974;21.722;2022-10-14T07:54:44;100925.00;;;10.62;94.64
71299;BME280;59083;47.974;21.722;2022-10-14T07:57:46;100934.16;;;10.28;95.58
71299;BME280;59083;47.974;21.722;2022-10-14T08:00:48;100933.88;;;10.54;95.56
71299;BME280;59083;47.974;21.722;2022-10-14T08:03:50;100933.31;;;10.67;95.12
71299;BME280;59083;47.974;21.722;2022-10-14T08:06:52;100933.59;;;10.80;94.60
71299;BME280;59083;47.974;21.722;2022-10-14T08:09:53;100937.53;;;10.92;94.09
71299;BME280;59083;47.974;21.722;2022-10-14T08:12:54;100935.75;;;11.07;94.22
71299;BME280;59083;47.974;21.722;2022-10-14T08:15:58;100939.41;;;11.06;93.85
71299;BME280;59083;47.974;21.722;2022-10-14T08:19:02;100934.31;;;11.19;93.57
71299;BME280;59083;47.974;21.722;2022-10-14T08:22:04;100923.19;;;11.39;92.78
71299;BME280;59083;47.974;21.722;2022-10-14T08:25:05;100929.44;;;11.46;92.70
71299;BME280;59083;47.974;21.722;2022-10-14T08:28:07;100920.28;;;11.63;92.21
71299;BME280;59083;47.974;21.722;2022-10-14T08:31:09;100920.28;;;11.63;91.92
71299;BME280;59083;47.974;21.722;2022-10-14T08:34:10;100919.94;;;11.66;92.05
71299;BME280;59083;47.974;21.722;2022-10-14T08:37:11;100929.66;;;11.82;91.86
71299;BME280;59083;47.974;21.722;2022-10-14T08:40:14;100928.53;;;11.76;91.74
71299;BME280;59083;47.974;21.722;2022-10-14T08:43:30;100935.97;;;11.66;92.50
71299;BME280;59083;47.974;21.722;2022-10-14T08:46:41;100927.53;;;11.77;92.60
71299;BME280;59083;47.974;21.722;2022-10-14T08:49:49;100926.81;;;11.83;92.07
71299;BME280;59083;47.974;21.722;2022-10-14T08:52:58;100928.31;;;12.00;91.45
71299;BME280;59083;47.974;21.722;2022-10-14T08:56:02;100925.72;;;11.92;91.84
71299;BME280;59083;47.974;21.722;2022-10-14T08:59:12;100924.69;;;12.08;91.17
71299;BME280;59083;47.974;21.722;2022-10-14T09:05:17;100927.28;;;12.31;90.63
71299;BME280;59083;47.974;21.722;2022-10-14T09:08:20;100925.34;;;12.25;90.86
71299;BME280;59083;47.974;21.722;2022-10-14T09:11:33;100924.06;;;12.21;90.95
71299;BME280;59083;47.974;21.722;2022-10-14T09:14:49;100909.41;;;12.17;90.95
71299;BME280;59083;47.974;21.722;2022-10-14T09:18:19;100920.56;;;12.35;90.58
71299;BME280;59083;47.974;21.722;2022-10-14T09:21:27;100927.53;;;12.36;90.85
71299;BME280;59083;47.974;21.722;2022-10-14T09:24:35;100916.69;;;12.52;90.87
71299;BME280;59083;47.974;21.722;2022-10-14T09:27:37;100929.91;;;12.60;90.92
71299;BME280;59083;47.974;21.722;2022-10-14T09:30:38;100924.50;;;12.54;90.62
71299;BME280;59083;47.974;21.722;2022-10-14T09:33:41;100925.25;;;12.83;89.57
71299;BME280;59083;47.974;21.722;2022-10-14T09:36:47;100930.38;;;13.00;89.19
71299;BME280;59083;47.974;21.722;2022-10-14T09:39:50;100933.31;;;13.05;89.01
71299;BME280;59083;47.974;21.722;2022-10-14T09:42:57;100932.53;;;13.26;88.30
71299;BME280;59083;47.974;21.722;2022-10-14T09:46:06;100923.69;;;13.25;88.10
71299;BME280;59083;47.974;21.722;2022-10-14T09:49:22;100933.38;;;13.26;88.16
71299;BME280;59083;47.974;21.722;2022-10-14T09:52:29;100931.72;;;13.25;87.11
71299;BME280;59083;47.974;21.722;2022-10-14T09:55:31;100924.44;;;13.40;86.96
71299;BME280;59083;47.974;21.722;2022-10-14T09:58:41;100916.50;;;13.53;86.71
71299;BME280;59083;47.974;21.722;2022-10-14T10:01:53;100922.22;;;13.44;86.55
71299;BME280;59083;47.974;21.722;2022-10-14T10:04:55;100916.62;;;13.45;86.92
71299;BME280;59083;47.974;21.722;2022-10-14T10:11:11;100917.41;;;13.60;86.21
71299;BME280;59083;47.974;21.722;2022-10-14T10:14:21;100926.06;;;13.62;85.84
71299;BME280;59083;47.974;21.722;2022-10-14T10:17:23;100921.94;;;13.60;86.21
71299;BME280;59083;47.974;21.722;2022-10-14T10:20:29;100916.28;;;13.76;85.99
71299;BME280;59083;47.974;21.722;2022-10-14T10:23:35;100917.53;;;13.80;85.73
71299;BME280;59083;47.974;21.722;2022-10-14T10:26:36;100914.03;;;13.80;85.71
71299;BME280;59083;47.974;21.722;2022-10-14T10:29:37;100928.97;;;13.95;85.71
71299;BME280;59083;47.974;21.722;2022-10-14T10:33:16;100914.84;;;14.08;85.19
71299;BME280;59083;47.974;21.722;2022-10-14T10:37:18;100907.44;;;14.10;84.81
71299;BME280;59083;47.974;21.722;2022-10-14T10:43:55;100896.62;;;13.97;85.70
71299;BME280;59083;47.974;21.722;2022-10-14T10:50:57;100898.28;;;13.98;85.23
71299;BME280;59083;47.974;21.722;2022-10-14T10:58:11;100880.87;;;14.56;83.40
71299;BME280;59083;47.974;21.722;2022-10-14T11:04:44;100880.63;;;14.44;83.56
71299;BME280;59083;47.974;21.722;2022-10-14T11:07:55;100881.63;;;14.43;83.58
71299;BME280;59083;47.974;21.722;2022-10-14T11:18:27;100858.78;;;14.54;83.83
71299;BME280;59083;47.974;21.722;2022-10-14T11:25:19;100862.50;;;14.60;83.81
71299;BME280;59083;47.974;21.722;2022-10-14T11:28:40;100851.63;;;14.74;83.68
71299;BME280;59083;47.974;21.722;2022-10-14T11:35:08;100839.25;;;15.00;82.56
71299;BME280;59083;47.974;21.722;2022-10-14T11:38:33;100835.78;;;15.12;81.99
71299;BME280;59083;47.974;21.722;2022-10-14T11:42:12;100826.91;;;15.18;81.81
71299;BME280;59083;47.974;21.722;2022-10-14T11:48:50;100815.34;;;15.38;81.14
71299;BME280;59083;47.974;21.722;2022-10-14T11:52:05;100817.63;;;15.54;80.52
71299;BME280;59083;47.974;21.722;2022-10-14T11:55:13;100807.47;;;15.43;80.71
71299;BME280;59083;47.974;21.722;2022-10-14T11:58:19;100805.38;;;15.51;80.83
71299;BME280;59083;47.974;21.722;2022-10-14T12:01:25;100809.31;;;15.62;80.70
71299;BME280;59083;47.974;21.722;2022-10-14T12:04:34;100810.16;;;15.56;80.56
71299;BME280;59083;47.974;21.722;2022-10-14T12:07:49;100801.88;;;15.51;81.09
71299;BME280;59083;47.974;21.722;2022-10-14T12:10:59;100802.09;;;15.56;80.81
71299;BME280;59083;47.974;21.722;2022-10-14T12:14:23;100792.59;;;15.60;80.76
71299;BME280;59083;47.974;21.722;2022-10-14T12:17:34;100793.56;;;15.72;80.31
71299;BME280;59083;47.974;21.722;2022-10-14T12:24:07;100781.94;;;15.98;79.80
71299;BME280;59083;47.974;21.722;2022-10-14T12:27:13;100785.25;;;16.00;78.91
71299;BME280;59083;47.974;21.722;2022-10-14T12:30:38;100778.59;;;16.02;78.50
71299;BME280;59083;47.974;21.722;2022-10-14T12:40:34;100782.94;;;16.03;78.84
71299;BME280;59083;47.974;21.722;2022-10-14T12:43:36;100777.56;;;16.03;78.35
71299;BME280;59083;47.974;21.722;2022-10-14T12:46:42;100768.47;;;16.04;78.03
71299;BME280;59083;47.974;21.722;2022-10-14T12:49:50;100775.91;;;16.02;78.84
71299;BME280;59083;47.974;21.722;2022-10-14T12:52:58;100762.66;;;16.07;78.61
71299;BME280;59083;47.974;21.722;2022-10-14T12:56:04;100766.37;;;16.06;78.70
71299;BME280;59083;47.974;21.722;2022-10-14T12:59:08;100775.06;;;16.08;76.67
71299;BME280;59083;47.974;21.722;2022-10-14T13:02:25;100766.56;;;16.11;76.85
71299;BME280;59083;47.974;21.722;2022-10-14T13:08:32;100764.50;;;16.07;75.92
71299;BME280;59083;47.974;21.722;2022-10-14T13:11:33;100760.13;;;16.12;75.85
71299;BME280;59083;47.974;21.722;2022-10-14T13:14:57;100767.78;;;16.16;75.44
71299;BME280;59083;47.974;21.722;2022-10-14T13:24:39;100756.75;;;16.24;73.50
71299;BME280;59083;47.974;21.722;2022-10-14T13:27:49;100751.00;;;16.20;74.02
71299;BME280;59083;47.974;21.722;2022-10-14T13:31:18;100743.59;;;16.16;73.98
71299;BME280;59083;47.974;21.722;2022-10-14T13:38:11;100748.97;;;16.16;74.16
71299;BME280;59083;47.974;21.722;2022-10-14T13:41:16;100744.19;;;16.18;74.29
71299;BME280;59083;47.974;21.722;2022-10-14T13:44:30;100747.31;;;16.15;74.32
71299;BME280;59083;47.974;21.722;2022-10-14T13:47:32;100750.19;;;16.13;73.65
71299;BME280;59083;47.974;21.722;2022-10-14T13:50:35;100740.53;;;16.05;73.30
71299;BME280;59083;47.974;21.722;2022-10-14T13:53:58;100731.81;;;16.10;73.74
71299;BME280;59083;47.974;21.722;2022-10-14T13:57:09;100735.75;;;16.07;73.87
71299;BME280;59083;47.974;21.722;2022-10-14T14:00:32;100736.38;;;16.09;74.22
71299;BME280;59083;47.974;21.722;2022-10-14T14:03:36;100732.00;;;16.15;73.77
71299;BME280;59083;47.974;21.722;2022-10-14T14:06:44;100730.16;;;16.16;74.23
71299;BME280;59083;47.974;21.722;2022-10-14T14:09:51;100730.16;;;16.16;74.42
71299;BME280;59083;47.974;21.722;2022-10-14T14:12:52;100722.91;;;16.16;75.21
71299;BME280;59083;47.974;21.722;2022-10-14T14:15:54;100715.84;;;16.22;75.08
71299;BME280;59083;47.974;21.722;2022-10-14T14:18:56;100719.13;;;16.24;75.45
71299;BME280;59083;47.974;21.722;2022-10-14T14:22:24;100713.34;;;16.20;75.51
71299;BME280;59083;47.974;21.722;2022-10-14T14:25:29;100712.53;;;16.20;75.86
71299;BME280;59083;47.974;21.722;2022-10-14T14:28:31;100709.66;;;16.15;76.37
71299;BME280;59083;47.974;21.722;2022-10-14T14:31:33;100710.09;;;16.11;76.94
71299;BME280;59083;47.974;21.722;2022-10-14T14:34:36;100708.88;;;16.07;76.93
71299;BME280;59083;47.974;21.722;2022-10-14T14:37:41;100716.75;;;16.02;77.42
71299;BME280;59083;47.974;21.722;2022-10-14T14:40:44;100711.66;;;15.94;78.63
71299;BME280;59083;47.974;21.722;2022-10-14T14:43:45;100705.84;;;15.91;78.79
71299;BME280;59083;47.974;21.722;2022-10-14T14:46:48;100708.16;;;15.87;78.81
71299;BME280;59083;47.974;21.722;2022-10-14T14:49:51;100705.28;;;15.82;78.99
71299;BME280;59083;47.974;21.722;2022-10-14T14:52:55;100704.50;;;15.75;79.90
71299;BME280;59083;47.974;21.722;2022-10-14T14:56:02;100697.28;;;15.69;80.47
71299;BME280;59083;47.974;21.722;2022-10-14T15:02:42;100693.78;;;15.62;81.38
71299;BME280;59083;47.974;21.722;2022-10-14T15:06:13;100699.16;;;15.55;81.93
71299;BME280;59083;47.974;21.722;2022-10-14T15:09:20;100693.59;;;15.50;82.10
71299;BME280;59083;47.974;21.722;2022-10-14T15:12:35;100695.06;;;15.46;82.54
71299;BME280;59083;47.974;21.722;2022-10-14T15:15:51;100696.72;;;15.41;82.86
71299;BME280;59083;47.974;21.722;2022-10-14T15:22:36;100690.78;;;15.19;84.32
71299;BME280;59083;47.974;21.722;2022-10-14T15:25:38;100692.84;;;15.10;84.75
71299;BME280;59083;47.974;21.722;2022-10-14T15:28:39;100693.88;;;15.09;84.88
71299;BME280;59083;47.974;21.722;2022-10-14T15:31:42;100693.94;;;14.96;86.37
71299;BME280;59083;47.974;21.722;2022-10-14T15:34:44;100688.56;;;14.76;87.51
71299;BME280;59083;47.974;21.722;2022-10-14T15:37:45;100694.56;;;14.65;88.59
71299;BME280;59083;47.974;21.722;2022-10-14T15:40:47;100698.47;;;14.50;89.70
71299;BME280;59083;47.974;21.722;2022-10-14T15:43:50;100703.41;;;14.39;90.18
71299;BME280;59083;47.974;21.722;2022-10-14T15:46:51;100702.13;;;14.29;90.81
71299;BME280;59083;47.974;21.722;2022-10-14T15:50:17;100705.81;;;14.21;91.42
71299;BME280;59083;47.974;21.722;2022-10-14T15:53:24;100703.31;;;14.13;92.13
71299;BME280;59083;47.974;21.722;2022-10-14T15:56:25;100704.53;;;14.04;92.72
71299;BME280;59083;47.974;21.722;2022-10-14T15:59:28;100702.25;;;13.94;93.47
71299;BME280;59083;47.974;21.722;2022-10-14T16:02:31;100699.31;;;13.83;94.39
71299;BME280;59083;47.974;21.722;2022-10-14T16:05:36;100701.34;;;13.74;94.89
71299;BME280;59083;47.974;21.722;2022-10-14T16:08:41;100698.63;;;13.68;95.65
71299;BME280;59083;47.974;21.722;2022-10-14T16:11:43;100693.25;;;13.54;96.31
71299;BME280;59083;47.974;21.722;2022-10-14T16:14:44;100707.78;;;13.45;96.87
71299;BME280;59083;47.974;21.722;2022-10-14T16:17:45;100705.31;;;13.37;97.47
71299;BME280;59083;47.974;21.722;2022-10-14T16:20:46;100710.81;;;13.29;97.99
71299;BME280;59083;47.974;21.722;2022-10-14T16:23:47;100713.66;;;13.21;98.82
71299;BME280;59083;47.974;21.722;2022-10-14T16:26:52;100717.72;;;13.17;98.90
71299;BME280;59083;47.974;21.722;2022-10-14T16:29:54;100721.16;;;13.11;99.07
71299;BME280;59083;47.974;21.722;2022-10-14T16:32:56;100721.31;;;13.03;99.48
71299;BME280;59083;47.974;21.722;2022-10-14T16:35:57;100720.84;;;12.93;99.52
71299;BME280;59083;47.974;21.722;2022-10-14T16:38:59;100725.28;;;12.86;99.50
71299;BME280;59083;47.974;21.722;2022-10-14T16:42:02;100722.38;;;12.80;99.54
71299;BME280;59083;47.974;21.722;2022-10-14T16:45:03;100726.44;;;12.76;99.47
71299;BME280;59083;47.974;21.722;2022-10-14T16:48:05;100730.94;;;12.69;99.73
71299;BME280;59083;47.974;21.722;2022-10-14T16:51:06;100724.69;;;12.62;100.00
71299;BME280;59083;47.974;21.722;2022-10-14T16:54:08;100731.69;;;12.63;100.00
71299;BME280;59083;47.974;21.722;2022-10-14T16:57:11;100738.69;;;12.64;100.00
71299;BME280;59083;47.974;21.722;2022-10-14T17:00:14;100728.00;;;12.64;100.00
71299;BME280;59083;47.974;21.722;2022-10-14T17:03:15;100733.72;;;12.61;100.00
71299;BME280;59083;47.974;21.722;2022-10-14T17:06:18;100738.69;;;12.64;100.00
71299;BME280;59083;47.974;21.722;2022-10-14T17:09:19;100732.06;;;12.60;100.00
71299;BME280;59083;47.974;21.722;2022-10-14T17:12:20;100744.34;;;12.55;100.00
71299;BME280;59083;47.974;21.722;2022-10-14T17:15:21;100740.34;;;12.44;100.00
71299;BME280;59083;47.974;21.722;2022-10-14T17:18:23;100745.19;;;12.34;99.80
71299;BME280;59083;47.974;21.722;2022-10-14T17:21:24;100752.28;;;12.27;99.89
71299;BME280;59083;47.974;21.722;2022-10-14T17:24:29;100749.37;;;12.22;99.84
71299;BME280;59083;47.974;21.722;2022-10-14T17:27:30;100750.13;;;12.16;99.93